createdAt,value
2022-12-17T00:00:45.947Z,-0.51
2022-12-17T00:03:32.416Z,-0.52
2022-12-17T00:06:29.378Z,-0.49
2022-12-17T00:09:15.470Z,-0.51
2022-12-17T00:12:02.332Z,-0.52
2022-12-17T00:14:49.698Z,-0.51
2022-12-17T00:17:35.852Z,-0.47
2022-12-17T00:20:21.348Z,-0.48
2022-12-17T00:23:07.837Z,-0.50
2022-12-17T00:25:53.153Z,-0.46
2022-12-17T00:28:39.047Z,-0.44
2022-12-17T00:31:25.451Z,-0.38
2022-12-17T00:34:13.787Z,-0.46
2022-12-17T00:36:59.744Z,-0.48
2022-12-17T00:39:45.154Z,-0.46
2022-12-17T00:42:31.228Z,-0.49
2022-12-17T00:45:17.454Z,-0.53
2022-12-17T00:48:02.918Z,-0.58
2022-12-17T00:50:49.242Z,-0.60
2022-12-17T00:53:35.321Z,-0.67
2022-12-17T00:56:22.459Z,-0.66
2022-12-17T00:59:09.333Z,-0.55
2022-12-17T01:01:55.726Z,-0.62
2022-12-17T01:04:43.060Z,-0.65
2022-12-17T01:07:28.348Z,-0.63
2022-12-17T01:10:14.307Z,-0.57
2022-12-17T01:13:01.454Z,-0.50
2022-12-17T01:15:47.590Z,-0.55
2022-12-17T01:18:38.680Z,-0.51
2022-12-17T01:21:24.528Z,-0.57
2022-12-17T01:24:09.913Z,-0.70
2022-12-17T01:26:56.223Z,-0.66
2022-12-17T01:29:41.904Z,-0.61
2022-12-17T01:32:28.051Z,-0.62
2022-12-17T01:35:13.320Z,-0.59
2022-12-17T01:37:59.660Z,-0.60
2022-12-17T01:40:45.331Z,-0.58
2022-12-17T01:43:32.292Z,-0.63
2022-12-17T01:46:18.471Z,-0.60
2022-12-17T01:49:06.424Z,-0.63
2022-12-17T01:51:53.309Z,-0.63
2022-12-17T01:54:40.755Z,-0.66
2022-12-17T01:57:27.840Z,-0.64
2022-12-17T02:00:25.547Z,-0.59
2022-12-17T02:03:10.989Z,-0.60
2022-12-17T02:06:25.150Z,-0.69
2022-12-17T02:09:35.941Z,-0.67
2022-12-17T02:12:40.527Z,-0.75
2022-12-17T02:15:43.129Z,-0.69
2022-12-17T02:18:39.039Z,-0.69
2022-12-17T02:21:26.481Z,-0.64
2022-12-17T02:24:28.876Z,-0.63
2022-12-17T02:27:19.882Z,-0.63
2022-12-17T02:30:12.083Z,-0.69
2022-12-17T02:33:01.787Z,-0.86
2022-12-17T02:36:03.053Z,-0.87
2022-12-17T02:38:50.758Z,-0.86
2022-12-17T02:41:54.948Z,-0.80
2022-12-17T02:44:41.091Z,-0.76
2022-12-17T02:47:29.560Z,-0.74
2022-12-17T02:50:15.012Z,-0.76
2022-12-17T02:53:06.172Z,-0.75
2022-12-17T02:55:52.719Z,-0.80
2022-12-17T02:58:38.605Z,-0.86
2022-12-17T03:01:25.214Z,-0.83
2022-12-17T03:04:10.813Z,-0.84
2022-12-17T03:06:56.474Z,-0.96
2022-12-17T03:09:41.894Z,-0.99
2022-12-17T03:12:27.737Z,-0.95
2022-12-17T03:15:14.113Z,-0.93
2022-12-17T03:17:59.321Z,-0.97
2022-12-17T03:20:45.252Z,-0.93
2022-12-17T03:23:31.256Z,-0.96
2022-12-17T03:26:21.844Z,-0.99
2022-12-17T03:29:07.220Z,-1.03
2022-12-17T03:31:53.307Z,-1.04
2022-12-17T03:34:38.923Z,-0.99
2022-12-17T03:37:24.841Z,-0.93
2022-12-17T03:40:21.359Z,-0.89
2022-12-17T03:43:06.774Z,-0.95
2022-12-17T03:46:06.098Z,-0.93
2022-12-17T03:48:51.564Z,-0.91
2022-12-17T03:51:36.759Z,-0.94
2022-12-17T03:54:22.727Z,-0.95
2022-12-17T03:57:13.073Z,-0.94
2022-12-17T04:00:01.072Z,-1.10
2022-12-17T04:02:46.801Z,-1.11
2022-12-17T04:05:33.111Z,-1.12
2022-12-17T04:08:18.455Z,-1.15
2022-12-17T04:11:04.257Z,-1.14
2022-12-17T04:13:50.043Z,-1.09
2022-12-17T04:16:35.248Z,-1.07
2022-12-17T04:19:21.275Z,-1.00
2022-12-17T04:22:06.759Z,-0.97
2022-12-17T04:24:52.104Z,-0.92
2022-12-17T04:27:38.158Z,-0.90
2022-12-17T04:30:23.979Z,-0.84
2022-12-17T04:33:09.850Z,-0.81
2022-12-17T04:35:55.779Z,-0.76
2022-12-17T04:38:41.308Z,-0.77
2022-12-17T04:41:27.055Z,-0.79
2022-12-17T04:44:12.974Z,-0.83
2022-12-17T04:46:58.458Z,-0.88
2022-12-17T04:49:44.356Z,-0.89
2022-12-17T04:52:30.151Z,-0.97
2022-12-17T04:55:15.820Z,-0.92
2022-12-17T04:58:01.027Z,-0.90
2022-12-17T05:00:46.599Z,-0.94
2022-12-17T05:03:35.454Z,-0.92
2022-12-17T05:06:22.559Z,-0.90
2022-12-17T05:09:07.958Z,-0.97
2022-12-17T05:11:53.904Z,-0.94
2022-12-17T05:14:39.733Z,-1.03
2022-12-17T05:17:25.491Z,-0.98
2022-12-17T05:20:10.979Z,-0.99
2022-12-17T05:22:56.408Z,-1.04
2022-12-17T05:25:41.828Z,-1.04
2022-12-17T05:28:27.348Z,-1.03
2022-12-17T05:31:14.210Z,-0.99
2022-12-17T05:34:00.652Z,-0.98
2022-12-17T05:36:46.421Z,-0.99
2022-12-17T05:39:31.961Z,-1.10
2022-12-17T05:42:17.331Z,-1.05
2022-12-17T05:45:02.830Z,-1.01
2022-12-17T05:47:48.463Z,-0.98
2022-12-17T05:50:34.271Z,-0.99
2022-12-17T05:53:24.285Z,-0.89
2022-12-17T05:56:11.192Z,-0.92
2022-12-17T05:58:57.525Z,-0.94
2022-12-17T06:01:44.149Z,-0.98
2022-12-17T06:04:29.951Z,-0.98
2022-12-17T06:07:15.184Z,-0.97
2022-12-17T06:10:01.277Z,-1.00
2022-12-17T06:12:46.665Z,-0.97
2022-12-17T06:15:32.498Z,-0.97
2022-12-17T06:18:18.013Z,-0.97
2022-12-17T06:21:04.738Z,-0.92
2022-12-17T06:23:50.602Z,-0.97
2022-12-17T06:26:46.777Z,-0.98
2022-12-17T06:29:31.900Z,-0.92
2022-12-17T06:32:17.427Z,-0.92
2022-12-17T06:35:03.346Z,-1.01
2022-12-17T06:37:49.265Z,-1.07
2022-12-17T06:40:34.839Z,-1.09
2022-12-17T06:43:20.842Z,-1.04
2022-12-17T06:46:06.321Z,-1.05
2022-12-17T06:48:51.639Z,-1.04
2022-12-17T06:51:36.939Z,-1.07
2022-12-17T06:54:22.365Z,-1.14
2022-12-17T06:57:07.759Z,-1.18
2022-12-17T06:59:54.326Z,-1.12
2022-12-17T07:02:39.703Z,-1.11
2022-12-17T07:05:25.378Z,-1.09
2022-12-17T07:08:18.720Z,-1.11
2022-12-17T07:11:04.621Z,-1.11
2022-12-17T07:13:50.692Z,-1.06
2022-12-17T07:16:37.355Z,-1.13
2022-12-17T07:19:27.224Z,-1.13
2022-12-17T07:22:12.917Z,-1.17
2022-12-17T07:24:58.469Z,-1.16
2022-12-17T07:27:44.909Z,-1.12
2022-12-17T07:30:31.521Z,-1.10
2022-12-17T07:33:25.637Z,-1.04
2022-12-17T07:36:12.525Z,-1.00
2022-12-17T07:38:59.045Z,-1.08
2022-12-17T07:41:44.623Z,-1.04
2022-12-17T07:44:30.667Z,-0.99
2022-12-17T07:47:15.904Z,-0.97
2022-12-17T07:50:01.267Z,-1.05
2022-12-17T07:52:46.710Z,-1.05
2022-12-17T07:55:32.477Z,-1.01
2022-12-17T07:58:24.538Z,-0.98
2022-12-17T08:01:10.678Z,-0.96
2022-12-17T08:03:56.118Z,-0.97
2022-12-17T08:06:41.481Z,-0.94
2022-12-17T08:09:26.864Z,-0.97
2022-12-17T08:12:12.423Z,-1.02
2022-12-17T08:14:57.798Z,-0.96
2022-12-17T08:17:44.732Z,-1.01
2022-12-17T08:20:30.036Z,-1.03
2022-12-17T08:23:23.213Z,-0.96
2022-12-17T08:26:09.026Z,-1.00
2022-12-17T08:28:54.613Z,-1.03
2022-12-17T08:31:43.193Z,-1.06
2022-12-17T08:34:28.468Z,-1.09
2022-12-17T08:37:14.383Z,-1.09
2022-12-17T08:39:59.974Z,-1.04
2022-12-17T08:42:45.650Z,-1.13
2022-12-17T08:45:32.116Z,-1.11
2022-12-17T08:48:24.054Z,-1.13
2022-12-17T08:51:09.833Z,-1.31
2022-12-17T08:53:55.741Z,-1.42
2022-12-17T08:56:41.844Z,-1.38
2022-12-17T08:59:27.309Z,-1.31
2022-12-17T09:02:13.439Z,-1.35
2022-12-17T09:04:59.490Z,-1.29
2022-12-17T09:07:44.951Z,-1.31
2022-12-17T09:10:32.349Z,-1.47
2022-12-17T09:13:22.580Z,-1.52
2022-12-17T09:16:12.668Z,-1.61
2022-12-17T09:18:58.452Z,-1.65
2022-12-17T09:21:49.708Z,-1.69
2022-12-17T09:24:35.254Z,-1.71
2022-12-17T09:27:21.378Z,-1.66
2022-12-17T09:30:06.800Z,-1.72
2022-12-17T09:32:52.615Z,-1.71
2022-12-17T09:35:38.010Z,-1.62
2022-12-17T09:38:23.784Z,-1.56
2022-12-17T09:41:10.406Z,-1.54
2022-12-17T09:44:22.269Z,-1.55
2022-12-17T09:47:32.200Z,-1.61
2022-12-17T09:50:22.567Z,-1.52
2022-12-17T09:53:08.682Z,-1.62
2022-12-17T09:56:06.302Z,-1.77
2022-12-17T09:58:55.774Z,-1.91
2022-12-17T10:01:45.582Z,-1.87
2022-12-17T10:04:38.752Z,-1.86
2022-12-17T10:07:31.925Z,-1.98
2022-12-17T10:10:41.256Z,-1.92
2022-12-17T10:13:31.896Z,-1.89
2022-12-17T10:16:18.006Z,-1.84
2022-12-17T10:19:05.437Z,-2.03
2022-12-17T10:21:52.615Z,-2.09
2022-12-17T10:24:38.247Z,-2.06
2022-12-17T10:27:29.109Z,-2.09
2022-12-17T10:30:15.088Z,-2.10
2022-12-17T10:33:00.748Z,-2.05
2022-12-17T10:35:54.918Z,-1.96
2022-12-17T10:38:43.965Z,-1.91
2022-12-17T10:41:48.735Z,-1.78
2022-12-17T10:44:54.708Z,-1.81
2022-12-17T10:47:43.896Z,-1.84
2022-12-17T10:50:39.929Z,-1.81
2022-12-17T10:53:38.197Z,-1.79
2022-12-17T10:56:24.885Z,-1.82
2022-12-17T10:59:12.610Z,-2.05
2022-12-17T11:02:00.695Z,-2.21
2022-12-17T11:04:55.685Z,-2.16
2022-12-17T11:07:57.404Z,-2.52
2022-12-17T11:10:52.370Z,-2.49
2022-12-17T11:13:55.112Z,-2.59
2022-12-17T11:16:46.647Z,-2.64
2022-12-17T11:19:32.028Z,-2.58
2022-12-17T11:22:30.609Z,-2.53
2022-12-17T11:25:24.630Z,-2.44
2022-12-17T11:28:24.509Z,-2.35
2022-12-17T11:31:20.175Z,-2.30
2022-12-17T11:34:17.109Z,-2.28
2022-12-17T11:37:31.956Z,-2.24
2022-12-17T11:40:36.491Z,-2.16
2022-12-17T11:43:35.289Z,-2.28
2022-12-17T11:46:45.267Z,-2.20
2022-12-17T11:49:46.544Z,-2.28
2022-12-17T11:52:55.263Z,-2.24
2022-12-17T11:55:53.495Z,-2.18
2022-12-17T11:59:14.920Z,-2.20
2022-12-17T12:02:15.098Z,-2.21
2022-12-17T12:05:29.029Z,-2.27
2022-12-17T12:08:21.539Z,-2.26
2022-12-17T12:11:31.974Z,-2.15
2022-12-17T12:14:40.021Z,-2.16
2022-12-17T12:17:46.839Z,-2.16
2022-12-17T12:20:45.476Z,-2.25
2022-12-17T12:23:41.091Z,-2.31
2022-12-17T12:26:37.657Z,-2.35
2022-12-17T12:29:42.389Z,-2.36
2022-12-17T12:32:36.779Z,-2.47
2022-12-17T12:35:24.799Z,-2.46
2022-12-17T12:38:10.853Z,-2.63
2022-12-17T12:41:06.169Z,-2.53
2022-12-17T12:43:58.117Z,-2.54
2022-12-17T12:47:07.708Z,-2.53
2022-12-17T12:50:21.505Z,-2.77
2022-12-17T12:53:07.043Z,-3.10
2022-12-17T12:56:01.019Z,-3.09
2022-12-17T12:58:49.658Z,-3.09
2022-12-17T13:01:36.781Z,-2.96
2022-12-17T13:04:42.925Z,-2.83
2022-12-17T13:07:24.944Z,-2.67
2022-12-17T13:09:54.785Z,-2.67
2022-12-17T13:12:42.231Z,-2.83
2022-12-17T13:15:15.050Z,-2.84
2022-12-17T13:18:07.125Z,-2.79
2022-12-17T13:20:35.169Z,-2.71
2022-12-17T13:23:14.801Z,-2.73
2022-12-17T13:25:42.323Z,-2.61
2022-12-17T13:28:27.599Z,-2.64
2022-12-17T13:31:06.833Z,-2.74
2022-12-17T13:33:44.546Z,-2.64
2022-12-17T13:36:29.548Z,-2.64
2022-12-17T13:39:11.805Z,-2.65
2022-12-17T13:41:39.041Z,-2.71
2022-12-17T13:44:22.357Z,-2.84
2022-12-17T13:46:51.975Z,-2.85
2022-12-17T13:49:20.553Z,-2.87
2022-12-17T13:51:48.625Z,-2.86
2022-12-17T13:54:19.401Z,-2.85
2022-12-17T13:56:46.405Z,-2.83
2022-12-17T13:59:20.633Z,-2.96
2022-12-17T14:01:50.496Z,-3.12
2022-12-17T14:04:26.046Z,-3.06
2022-12-17T14:06:56.874Z,-3.06
2022-12-17T14:09:32.473Z,-3.17
2022-12-17T14:12:22.192Z,-3.24
2022-12-17T14:14:57.055Z,-3.13
2022-12-17T14:17:29.942Z,-3.03
2022-12-17T14:20:05.977Z,-3.01
2022-12-17T14:22:35.643Z,-2.92
2022-12-17T14:25:05.421Z,-2.98
2022-12-17T14:27:36.217Z,-3.00
2022-12-17T14:31:02.553Z,-3.03
2022-12-17T14:33:27.747Z,-2.95
2022-12-17T14:35:57.030Z,-3.00
2022-12-17T14:38:37.616Z,-3.09
2022-12-17T14:41:32.840Z,-3.19
2022-12-17T14:44:01.624Z,-3.22
2022-12-17T14:46:30.572Z,-3.18
2022-12-17T14:49:02.288Z,-3.22
2022-12-17T14:51:31.899Z,-3.26
2022-12-17T14:54:05.907Z,-3.28
2022-12-17T14:56:33.744Z,-3.33
2022-12-17T14:59:02.415Z,-3.43
2022-12-17T15:01:29.668Z,-3.39
2022-12-17T15:03:57.628Z,-3.45
2022-12-17T15:06:26.882Z,-3.29
2022-12-17T15:08:53.896Z,-3.35
2022-12-17T15:11:23.352Z,-3.38
2022-12-17T15:13:54.651Z,-3.34
2022-12-17T15:16:24.175Z,-3.39
2022-12-17T15:18:51.188Z,-3.41
2022-12-17T15:21:20.632Z,-3.38
2022-12-17T15:23:47.854Z,-3.39
2022-12-17T15:26:15.415Z,-3.41
2022-12-17T15:28:43.338Z,-3.34
2022-12-17T15:31:12.639Z,-3.48
2022-12-17T15:33:40.574Z,-3.50
2022-12-17T15:36:08.117Z,-3.48
2022-12-17T15:38:35.767Z,-3.54
2022-12-17T15:41:23.596Z,-3.55
2022-12-17T15:43:51.335Z,-3.57
2022-12-17T15:46:18.781Z,-3.52
2022-12-17T15:48:50.377Z,-3.49
2022-12-17T15:51:19.702Z,-3.50
2022-12-17T15:53:48.007Z,-3.52
2022-12-17T15:56:20.602Z,-3.58
2022-12-17T15:58:48.030Z,-3.58
2022-12-17T16:01:15.389Z,-3.64
2022-12-17T16:03:44.215Z,-3.65
2022-12-17T16:06:11.914Z,-3.57
2022-12-17T16:08:40.395Z,-3.60
2022-12-17T16:11:09.262Z,-3.59
2022-12-17T16:13:39.918Z,-3.64
2022-12-17T16:16:08.171Z,-3.73
2022-12-17T16:18:38.558Z,-3.78
2022-12-17T16:21:07.401Z,-3.73
2022-12-17T16:23:34.921Z,-3.82
2022-12-17T16:26:03.841Z,-3.76
2022-12-17T16:28:31.327Z,-3.80
2022-12-17T16:31:24.939Z,-3.83
2022-12-17T16:33:52.224Z,-3.83
2022-12-17T16:36:21.118Z,-3.91
2022-12-17T16:38:50.346Z,-3.93
2022-12-17T16:41:18.913Z,-3.91
2022-12-17T16:43:46.946Z,-3.82
2022-12-17T16:46:25.518Z,-3.91
2022-12-17T16:48:52.529Z,-3.89
2022-12-17T16:51:28.390Z,-3.93
2022-12-17T16:53:57.688Z,-4.01
2022-12-17T16:56:28.598Z,-3.97
2022-12-17T16:58:57.102Z,-3.99
2022-12-17T17:01:28.020Z,-3.91
2022-12-17T17:03:56.816Z,-4.03
2022-12-17T17:06:28.831Z,-4.11
2022-12-17T17:08:58.573Z,-4.14
2022-12-17T17:11:25.888Z,-4.20
2022-12-17T17:13:54.414Z,-4.26
2022-12-17T17:16:24.469Z,-4.35
2022-12-17T17:18:53.130Z,-4.39
2022-12-17T17:21:20.312Z,-4.40
2022-12-17T17:23:55.215Z,-4.41
2022-12-17T17:26:25.015Z,-4.39
2022-12-17T17:28:53.088Z,-4.41
2022-12-17T17:31:21.808Z,-4.42
2022-12-17T17:33:51.172Z,-4.47
2022-12-17T17:36:30.564Z,-4.51
2022-12-17T17:38:59.524Z,-4.47
2022-12-17T17:41:28.924Z,-4.49
2022-12-17T17:44:07.360Z,-4.53
2022-12-17T17:46:35.172Z,-4.49
2022-12-17T17:49:05.098Z,-4.59
2022-12-17T17:52:08.540Z,-4.61
2022-12-17T17:54:25.017Z,-4.63
2022-12-17T17:56:52.144Z,-4.65
2022-12-17T17:59:19.592Z,-4.66
2022-12-17T18:01:49.596Z,-4.63
2022-12-17T18:04:22.062Z,-4.68
2022-12-17T18:07:23.115Z,-4.72
2022-12-17T18:09:37.138Z,-4.72
2022-12-17T18:12:26.824Z,-4.70
2022-12-17T18:17:40.781Z,-4.78
2022-12-17T18:20:09.571Z,-4.86
2022-12-17T18:22:37.794Z,-4.88
2022-12-17T18:25:05.427Z,-4.88
2022-12-17T18:27:32.568Z,-4.89
2022-12-17T18:30:00.180Z,-4.86
2022-12-17T18:32:27.321Z,-4.90
2022-12-17T18:34:54.385Z,-4.89
2022-12-17T18:37:21.572Z,-4.96
2022-12-17T18:39:48.937Z,-4.90
2022-12-17T18:42:34.567Z,-4.86
2022-12-17T18:45:02.519Z,-4.86
2022-12-17T18:47:29.561Z,-4.90
2022-12-17T18:49:57.288Z,-4.93
2022-12-17T18:52:24.659Z,-4.97
2022-12-17T18:54:51.804Z,-4.99
2022-12-17T18:57:19.120Z,-4.93
2022-12-17T18:59:46.335Z,-4.99
2022-12-17T19:02:14.084Z,-5.09
2022-12-17T19:04:42.363Z,-4.99
2022-12-17T19:07:09.494Z,-5.04
2022-12-17T19:09:38.439Z,-5.10
2022-12-17T19:12:06.778Z,-5.15
2022-12-17T19:14:34.411Z,-5.18
2022-12-17T19:17:01.724Z,-5.18
2022-12-17T19:19:28.974Z,-5.19
2022-12-17T19:21:56.227Z,-5.20
2022-12-17T19:24:23.762Z,-5.06
2022-12-17T19:26:51.765Z,-5.16
2022-12-17T19:29:20.214Z,-5.14
2022-12-17T19:31:47.532Z,-5.10
2022-12-17T19:34:16.608Z,-5.14
2022-12-17T19:36:44.327Z,-5.20
2022-12-17T19:39:14.177Z,-5.17
2022-12-17T19:41:41.392Z,-5.24
2022-12-17T19:44:13.628Z,-5.25
2022-12-17T19:46:41.331Z,-5.28
2022-12-17T19:49:11.736Z,-5.24
2022-12-17T19:51:40.479Z,-5.31
2022-12-17T19:54:09.258Z,-5.30
2022-12-17T19:56:37.236Z,-5.35
2022-12-17T19:59:07.558Z,-5.40
2022-12-17T20:01:37.370Z,-5.39
2022-12-17T20:04:05.593Z,-5.40
2022-12-17T20:06:34.647Z,-5.43
2022-12-17T20:09:03.629Z,-5.45
2022-12-17T20:11:33.179Z,-5.43
2022-12-17T20:14:25.915Z,-5.46
2022-12-17T20:16:58.601Z,-5.49
2022-12-17T20:19:31.009Z,-5.45
2022-12-17T20:21:59.044Z,-5.44
2022-12-17T20:24:31.141Z,-5.37
2022-12-17T20:26:59.646Z,-5.37
2022-12-17T20:29:27.446Z,-5.38
2022-12-17T20:31:55.402Z,-5.37
2022-12-17T20:34:23.483Z,-5.41
2022-12-17T20:36:51.960Z,-5.41
2022-12-17T20:39:25.953Z,-5.41
2022-12-17T20:41:54.117Z,-5.43
2022-12-17T20:44:21.028Z,-5.44
2022-12-17T20:46:48.024Z,-5.43
2022-12-17T20:49:15.087Z,-5.42
2022-12-17T20:51:42.811Z,-5.40
2022-12-17T20:54:10.312Z,-5.41
2022-12-17T20:56:38.694Z,-5.35
2022-12-17T20:59:07.502Z,-5.39
2022-12-17T21:01:36.862Z,-5.45
2022-12-17T21:04:07.008Z,-5.40
2022-12-17T21:06:40.595Z,-5.30
2022-12-17T21:09:08.638Z,-5.37
2022-12-17T21:11:37.106Z,-5.38
2022-12-17T21:14:09.063Z,-5.43
2022-12-17T21:16:39.279Z,-5.44
2022-12-17T21:19:08.676Z,-5.42
2022-12-17T21:21:38.389Z,-5.40
2022-12-17T21:24:07.378Z,-5.38
2022-12-17T21:26:38.894Z,-5.37
2022-12-17T21:29:07.897Z,-5.36
2022-12-17T21:31:39.054Z,-5.43
2022-12-17T21:34:11.442Z,-5.41
2022-12-17T21:36:38.883Z,-5.28
2022-12-17T21:39:09.148Z,-5.29
2022-12-17T21:41:39.237Z,-5.15
2022-12-17T21:44:12.029Z,-5.13
2022-12-17T21:46:39.918Z,-5.07
2022-12-17T21:49:06.834Z,-5.02
2022-12-17T21:51:34.079Z,-4.96
2022-12-17T21:54:08.802Z,-4.84
2022-12-17T21:56:37.260Z,-4.68
2022-12-17T21:59:04.197Z,-4.65
2022-12-17T22:01:33.724Z,-4.65
2022-12-17T22:04:03.381Z,-4.64
2022-12-17T22:06:33.833Z,-4.64
2022-12-17T22:09:09.247Z,-4.61
2022-12-17T22:12:11.495Z,-4.56
2022-12-17T22:14:38.782Z,-4.51
2022-12-17T22:17:05.922Z,-4.42
2022-12-17T22:19:33.943Z,-4.42
2022-12-17T22:22:00.859Z,-4.30
2022-12-17T22:24:36.172Z,-4.26
2022-12-17T22:27:03.999Z,-4.23
2022-12-17T22:29:52.440Z,-4.24
2022-12-17T22:32:38.154Z,-4.19
2022-12-17T22:36:21.729Z,-4.13
2022-12-17T22:41:00.888Z,-4.12
2022-12-17T22:43:21.622Z,-4.09
2022-12-17T22:44:43.848Z,-4.17
2022-12-17T22:46:19.079Z,-4.16
2022-12-17T22:48:47.054Z,-4.19
2022-12-17T22:51:24.514Z,-4.16
2022-12-17T22:53:56.642Z,-4.15
2022-12-17T22:56:33.051Z,-4.14
2022-12-17T22:59:18.471Z,-3.98
2022-12-17T23:01:46.334Z,-4.09
2022-12-17T23:04:14.651Z,-4.05
2022-12-17T23:06:45.207Z,-4.19
2022-12-17T23:09:19.319Z,-4.20
2022-12-17T23:11:48.556Z,-4.22
2022-12-17T23:14:17.193Z,-4.22
2022-12-17T23:16:44.758Z,-4.17
2022-12-17T23:19:13.683Z,-4.28
2022-12-17T23:21:41.126Z,-4.29
2022-12-17T23:24:08.760Z,-4.32
2022-12-17T23:26:36.848Z,-4.36
2022-12-17T23:29:07.116Z,-4.39
2022-12-17T23:31:37.017Z,-4.39
2022-12-17T23:34:04.874Z,-4.40
2022-12-17T23:36:32.218Z,-4.43
2022-12-17T23:38:59.279Z,-4.40
2022-12-17T23:41:29.711Z,-4.43
2022-12-17T23:43:58.057Z,-4.41
2022-12-17T23:46:27.225Z,-4.54
2022-12-17T23:48:55.021Z,-4.49
2022-12-17T23:51:24.825Z,-4.53
2022-12-17T23:53:51.763Z,-4.61
2022-12-17T23:56:21.399Z,-4.48
2022-12-17T23:58:51.733Z,-4.53
